Time;durP1;ratioP1;P1;durP2;ratioP2;P2;SDS_P1;SDS_P2;PMS_P1;PMS_P2;Temp;Humidity;BMP_temperature;BMP_pressure;BME280_temperature;BME280_humidity;BME280_pressure;Samples;Min_cycle;Max_cycle;Signal;HPM_P1;HPM_P2
2023/07/05 00:00:42;;;;;;;4.15;1.75;;;;;;;21.02;100.00;100391.25;5008846;28;20060;-76
2023/07/05 00:03:07;;;;;;;4.78;2.60;;;;;;;21.08;100.00;100397.19;5007481;28;20490;-76
2023/07/05 00:05:37;;;;;;;2.58;1.65;;;;;;;21.56;100.00;100487.69;5001903;28;20039;-76
2023/07/05 00:08:03;;;;;;;3.40;2.20;;;;;;;21.07;100.00;100384.81;5006489;28;20034;-76
2023/07/05 00:10:29;;;;;;;8.63;2.33;;;;;;;21.58;100.00;100464.47;5008823;28;20549;-76
2023/07/05 00:12:54;;;;;;;5.03;2.88;;;;;;;21.09;100.00;100400.72;4989308;28;20034;-76
2023/07/05 00:15:20;;;;;;;4.40;3.28;;;;;;;21.24;100.00;100449.91;5008529;28;20057;-76
2023/07/05 00:17:45;;;;;;;4.38;2.38;;;;;;;20.89;100.00;100377.59;5008264;28;20042;-75
2023/07/05 00:20:11;;;;;;;2.30;1.85;;;;;;;21.00;100.00;100383.34;5005447;28;20065;-76
2023/07/05 00:22:37;;;;;;;7.70;3.17;;;;;;;21.52;100.00;100451.38;5009321;28;20041;-77
2023/07/05 00:25:03;;;;;;;4.07;2.65;;;;;;;21.45;100.00;100461.47;5008211;28;20034;-77
2023/07/05 00:27:29;;;;;;;3.88;2.40;;;;;;;21.09;100.00;100379.38;5006593;28;20034;-77
2023/07/05 00:29:54;;;;;;;4.85;2.65;;;;;;;21.25;100.00;100465.84;5004152;28;20127;-77
2023/07/05 00:32:21;;;;;;;7.28;2.88;;;;;;;20.63;100.00;100362.72;5008513;28;20040;-76
2023/07/05 00:34:46;;;;;;;5.93;2.58;;;;;;;20.68;100.00;100386.53;4988830;28;20482;-77
2023/07/05 00:37:12;;;;;;;4.68;1.73;;;;;;;20.49;100.00;100389.06;5002873;28;20053;-77
2023/07/05 00:39:38;;;;;;;5.03;2.38;;;;;;;20.80;100.00;100426.00;5006673;28;20065;-77
2023/07/05 00:42:04;;;;;;;5.82;2.85;;;;;;;21.06;100.00;100463.09;5005807;28;20042;-76
2023/07/05 00:44:30;;;;;;;5.03;2.30;;;;;;;21.35;100.00;100481.44;5004221;28;20133;-76
2023/07/05 00:47:28;;;;;;;3.33;2.20;;;;;;;21.47;100.00;100480.97;4987533;28;20446;-77
2023/07/05 00:49:59;;;;;;;6.70;2.45;;;;;;;20.98;100.00;100411.03;4994748;28;20049;-77
2023/07/05 00:52:25;;;;;;;4.63;2.80;;;;;;;21.43;100.00;100474.88;4996979;28;20053;-77
2023/07/05 00:54:55;;;;;;;6.85;2.65;;;;;;;20.79;100.00;100426.91;5004420;28;20120;-78
2023/07/05 00:57:26;;;;;;;6.45;3.30;;;;;;;21.37;100.00;100482.25;5001301;28;20041;-77
2023/07/05 01:00:08;;;;;;;4.00;2.60;;;;;;;21.33;100.00;100476.22;4986471;28;20471;-75
2023/07/05 01:02:39;;;;;;;5.67;3.17;;;;;;;20.94;100.00;100414.75;5001721;28;20042;-76
2023/07/05 01:05:05;;;;;;;4.47;2.70;;;;;;;21.05;100.00;100409.81;4995183;28;20038;-76
2023/07/05 01:07:31;;;;;;;4.18;2.17;;;;;;;21.03;100.00;100467.72;5008069;28;20385;-78
2023/07/05 01:09:57;;;;;;;5.93;4.80;;;;;;;20.99;100.00;100474.09;5006099;28;20042;-78
2023/07/05 01:12:40;;;;;;;5.15;2.65;;;;;;;21.03;100.00;100467.72;5004875;28;20497;-77
2023/07/05 01:15:12;;;;;;;;;;;;;;;21.05;100.00;100469.38;4992888;28;20065;-77
2023/07/05 01:17:56;;;;;;;7.18;3.30;;;;;;;21.02;100.00;100473.97;5007123;28;19918;-78
2023/07/05 01:20:33;;;;;;;4.15;2.53;;;;;;;20.91;100.00;100474.44;5006625;28;20390;-77
2023/07/05 01:22:59;;;;;;;7.55;2.85;;;;;;;20.89;100.00;100478.97;5005112;28;20034;-77
2023/07/05 01:25:39;;;;;;;4.93;2.97;;;;;;;20.79;100.00;100473.16;5004537;28;20038;-76
2023/07/05 01:28:25;;;;;;;15.00;3.95;;;;;;;20.79;100.00;100475.81;4986058;28;20058;-75
2023/07/05 01:31:01;;;;;;;4.25;2.63;;;;;;;20.73;100.00;100489.38;4969786;28;20129;-76
2023/07/05 01:33:54;;;;;;;6.18;3.05;;;;;;;20.77;100.00;100479.47;5005751;28;20133;-77
2023/07/05 01:36:21;;;;;;;3.92;1.88;;;;;;;20.35;100.00;100418.94;5004029;28;20053;-76
2023/07/05 01:38:46;;;;;;;4.88;3.58;;;;;;;20.34;100.00;100418.06;5005341;28;20038;-76
2023/07/05 01:41:12;;;;;;;6.20;3.22;;;;;;;20.11;100.00;100384.38;5006728;28;20338;-78
2023/07/05 01:43:41;;;;;;;7.32;3.10;;;;;;;20.69;100.00;100474.44;5007833;28;20034;-77
2023/07/05 01:46:37;;;;;;;4.75;2.60;;;;;;;20.81;100.00;100473.97;5000296;28;20132;-78
2023/07/05 01:49:27;;;;;;;4.82;2.90;;;;;;;20.69;100.00;100481.56;5001323;28;20056;-76
2023/07/05 01:52:04;;;;;;;9.13;2.83;;;;;;;19.96;100.00;100376.97;5003598;28;20042;-76
2023/07/05 01:54:44;;;;;;;5.32;2.53;;;;;;;20.59;100.00;100491.75;5006169;28;20128;-76
2023/07/05 01:57:27;;;;;;;5.28;3.22;;;;;;;20.13;100.00;100402.94;4988726;28;20042;-77
2023/07/05 01:59:56;;;;;;;6.65;3.28;;;;;;;20.54;100.00;100507.03;5001474;28;20037;-75
2023/07/05 02:02:29;;;;;;;6.18;3.72;;;;;;;19.98;100.00;100412.41;5012867;28;20034;-75
2023/07/05 02:04:58;;;;;;;5.35;3.22;;;;;;;20.50;100.00;100490.28;5010418;28;20388;-75
2023/07/05 02:07:26;;;;;;;6.85;3.55;;;;;;;20.29;100.00;100472.47;5008862;28;20132;-75
2023/07/05 02:09:51;;;;;;;4.72;2.70;;;;;;;19.83;100.00;100403.22;5009351;28;20045;-76
2023/07/05 02:12:17;;;;;;;6.30;4.00;;;;;;;19.38;100.00;100342.75;5008022;28;20037;-75
2023/07/05 02:14:42;;;;;;;6.57;3.00;;;;;;;20.16;100.00;100494.28;5007481;28;20037;-75
2023/07/05 02:17:07;;;;;;;13.13;4.05;;;;;;;19.98;100.00;100460.34;5011188;28;20030;-75
2023/07/05 02:19:33;;;;;;;8.93;3.78;;;;;;;19.73;100.00;100412.47;4990097;28;20072;-72
2023/07/05 02:21:59;;;;;;;5.65;3.72;;;;;;;20.14;100.00;100488.13;5009365;28;20767;-73
2023/07/05 02:24:24;;;;;;;6.93;4.43;;;;;;;20.18;100.00;100489.75;5010799;28;20773;-73
2023/07/05 02:26:54;;;;;;;4.88;3.58;;;;;;;19.84;100.00;100402.28;5005066;28;20439;-75
2023/07/05 02:29:20;;;;;;;5.28;3.53;;;;;;;20.41;100.00;100501.31;5009346;28;20104;-74
2023/07/05 02:31:45;;;;;;;5.72;3.03;;;;;;;20.44;100.00;100479.88;5011036;28;20428;-73
2023/07/05 02:34:11;;;;;;;5.97;3.65;;;;;;;20.47;100.00;100486.88;5007302;28;20053;-73
2023/07/05 02:36:36;;;;;;;7.47;3.33;;;;;;;20.63;100.00;100488.03;4998087;28;20053;-73
2023/07/05 02:39:02;;;;;;;9.45;3.95;;;;;;;20.73;100.00;100491.19;5009301;28;20145;-74
2023/07/05 02:41:27;;;;;;;4.10;2.40;;;;;;;20.78;100.00;100499.88;5009290;28;20038;-74
2023/07/05 02:43:53;;;;;;;5.90;3.75;;;;;;;20.39;100.00;100429.41;5012679;28;20040;-73
2023/07/05 02:46:18;;;;;;;7.30;3.30;;;;;;;20.84;100.00;100500.50;5007770;28;20050;-74
2023/07/05 02:48:45;;;;;;;4.85;2.78;;;;;;;20.20;100.00;100389.28;5011560;28;20041;-73
2023/07/05 02:51:11;;;;;;;6.30;4.03;;;;;;;20.40;100.00;100415.16;5012631;28;20050;-74
2023/07/05 02:53:36;;;;;;;5.95;3.90;;;;;;;20.63;100.00;100494.22;4995041;28;20046;-74
2023/07/05 02:56:03;;;;;;;7.95;4.40;;;;;;;20.59;100.00;100497.09;5013107;28;20052;-74
2023/07/05 02:58:28;;;;;;;5.53;3.33;;;;;;;20.59;100.00;100492.63;5012742;28;20058;-74
2023/07/05 03:00:54;;;;;;;6.70;4.38;;;;;;;20.16;100.00;100384.19;5012783;28;20830;-74
2023/07/05 03:03:21;;;;;;;9.32;3.15;;;;;;;20.84;100.00;100483.63;5012825;28;20076;-74
2023/07/05 03:05:57;;;;;;;8.55;4.43;;;;;;;20.50;100.00;100412.09;5004989;28;20125;-75
2023/07/05 03:08:22;;;;;;;13.13;4.10;;;;;;;20.96;100.00;100493.78;5007320;28;20049;-75
2023/07/05 03:10:51;;;;;;;5.22;3.20;;;;;;;20.34;100.00;100379.88;5005850;28;20026;-75
2023/07/05 03:13:16;;;;;;;5.25;3.15;;;;;;;20.40;100.00;100384.97;5006732;28;20052;-74
2023/07/05 03:15:43;;;;;;;5.40;3.38;;;;;;;20.93;100.00;100464.56;5008900;28;20045;-75
2023/07/05 03:18:08;;;;;;;6.75;4.25;;;;;;;20.87;100.00;100457.69;4987637;28;20057;-74
2023/07/05 03:20:33;;;;;;;7.15;3.45;;;;;;;20.96;100.00;100459.09;5007477;28;20406;-74
2023/07/05 03:22:59;;;;;;;9.68;3.85;;;;;;;20.86;100.00;100445.28;5010142;28;20394;-74
2023/07/05 03:25:24;;;;;;;6.40;3.83;;;;;;;20.97;100.00;100444.81;5009063;28;20482;-74
2023/07/05 03:27:50;;;;;;;9.93;3.63;;;;;;;20.58;100.00;100372.69;5004751;28;20426;-73
2023/07/05 03:30:15;;;;;;;7.28;3.95;;;;;;;21.12;100.00;100478.00;5009281;28;20104;-74
2023/07/05 03:32:43;;;;;;;8.32;3.25;;;;;;;20.87;100.00;100422.13;5001544;28;20041;-75
2023/07/05 03:35:08;;;;;;;7.70;4.03;;;;;;;20.39;100.00;100394.78;5000242;28;20089;-74
2023/07/05 03:37:34;;;;;;;4.78;3.00;;;;;;;21.03;100.00;100475.72;5008823;28;20038;-75
2023/07/05 03:39:59;;;;;;;7.32;4.55;;;;;;;20.85;100.00;100450.69;5002798;28;20073;-76
2023/07/05 03:42:25;;;;;;;6.82;3.80;;;;;;;20.60;100.00;100377.06;5008673;28;20054;-75
2023/07/05 03:44:50;;;;;;;15.82;4.30;;;;;;;20.41;100.00;100360.91;5007309;28;20045;-75
2023/07/05 03:47:16;;;;;;;5.22;3.45;;;;;;;21.09;100.00;100454.09;5008606;28;20030;-77
2023/07/05 03:49:41;;;;;;;5.57;2.90;;;;;;;20.70;100.00;100381.97;5006271;28;20481;-77
2023/07/05 03:52:07;;;;;;;6.65;3.95;;;;;;;21.14;100.00;100454.78;4986580;28;20053;-76
2023/07/05 03:54:32;;;;;;;19.98;5.20;;;;;;;20.41;100.00;100368.91;5008678;28;20506;-75
2023/07/05 03:56:58;;;;;;;11.63;5.55;;;;;;;21.19;100.00;100452.78;4990717;28;20057;-75
2023/07/05 03:59:23;;;;;;;4.90;3.03;;;;;;;21.07;100.00;100437.28;4990688;28;20041;-76
2023/07/05 04:01:48;;;;;;;5.70;3.67;;;;;;;21.25;100.00;100431.13;5006584;28;20096;-76
2023/07/05 04:04:14;;;;;;;13.13;4.82;;;;;;;20.95;100.00;100363.97;5008426;28;20046;-76
2023/07/05 04:06:39;;;;;;;7.10;4.25;;;;;;;21.40;100.00;100472.38;5006457;28;20054;-76
2023/07/05 04:09:05;;;;;;;5.95;4.43;;;;;;;21.38;100.00;100447.50;5008762;28;20048;-76
2023/07/05 04:11:31;;;;;;;4.88;3.08;;;;;;;21.21;100.00;100440.25;5008616;28;20053;-76
2023/07/05 04:13:56;;;;;;;6.43;4.05;;;;;;;21.54;100.00;100465.53;5008625;28;20036;-75
2023/07/05 04:16:24;;;;;;;6.40;4.18;;;;;;;21.10;100.00;100375.78;5008424;28;20196;-75
2023/07/05 04:18:53;;;;;;;6.95;4.07;;;;;;;20.68;100.00;100298.53;5008831;28;20057;-75
2023/07/05 04:21:19;;;;;;;9.15;4.32;;;;;;;21.57;100.00;100447.56;5005020;28;20132;-75
2023/07/05 04:23:44;;;;;;;9.38;5.40;;;;;;;21.46;100.00;100432.03;5007117;28;20054;-76
2023/07/05 04:26:13;;;;;;;4.72;3.75;;;;;;;21.69;100.00;100459.50;5008265;28;20030;-79
2023/07/05 04:28:40;;;;;;;8.13;4.55;;;;;;;21.70;100.00;100439.84;5004038;28;20049;-74
2023/07/05 04:31:09;;;;;;;5.40;3.83;;;;;;;21.24;100.00;100364.50;4990158;28;20042;-74
2023/07/05 04:33:35;;;;;;;4.90;3.70;;;;;;;21.34;100.00;100357.81;5007837;28;20397;-75
2023/07/05 04:36:02;;;;;;;6.28;3.88;;;;;;;22.01;100.00;100451.78;5006343;28;20042;-75
2023/07/05 04:38:28;;;;;;;8.93;3.97;;;;;;;21.14;100.00;100300.00;5002835;28;20054;-75
2023/07/05 04:40:55;;;;;;;7.07;4.30;;;;;;;21.98;100.00;100428.75;5005153;28;20140;-73
2023/07/05 04:43:21;;;;;;;8.38;4.72;;;;;;;22.01;100.00;100430.41;5000537;28;20042;-75
2023/07/05 04:45:55;;;;;;;7.40;3.58;;;;;;;21.81;100.00;100381.47;5002368;28;20564;-75
2023/07/05 04:48:24;;;;;;;11.48;5.35;;;;;;;22.02;100.00;100392.09;5005896;28;20053;-76
2023/07/05 04:50:52;;;;;;;7.35;4.45;;;;;;;22.40;100.00;100461.56;5007371;28;20421;-75
2023/07/05 04:53:22;;;;;;;6.35;3.47;;;;;;;21.87;100.00;100365.16;5007454;28;20072;-76
2023/07/05 04:55:51;;;;;;;7.20;3.50;;;;;;;21.75;100.00;100346.16;5007922;28;20200;-76
2023/07/05 04:58:17;;;;;;;6.45;3.72;;;;;;;22.44;100.00;100445.31;5002437;28;20042;-75
2023/07/05 05:00:49;;;;;;;6.55;4.20;;;;;;;21.85;100.00;100358.16;5007067;28;20138;-76
2023/07/05 05:03:19;;;;;;;5.85;3.95;;;;;;;22.25;100.00;100413.25;4999475;28;20120;-77
2023/07/05 05:05:47;;;;;;;7.18;3.72;;;;;;;22.66;100.00;100452.25;5004949;28;20042;-76
2023/07/05 05:08:13;;;;;;;7.80;4.80;;;;;;;22.79;100.00;100441.84;5004530;28;20048;-76
2023/07/05 05:10:38;;;;;;;6.05;3.67;;;;;;;23.04;100.00;100383.47;5003859;28;20490;-77
2023/07/05 05:13:05;;;;;;;9.57;3.97;;;;;;;22.73;100.00;100413.56;5003985;28;20603;-77
2023/07/05 05:15:38;;;;;;;10.00;4.97;;;;;;;22.68;100.00;100391.53;5005373;28;20042;-75
2023/07/05 05:18:05;;;;;;;6.43;2.75;;;;;;;22.85;100.00;100390.66;4996279;28;20054;-76
2023/07/05 05:20:31;;;;;;;9.15;4.05;;;;;;;23.66;100.00;100433.75;5005073;28;20045;-76
2023/07/05 05:22:58;;;;;;;6.80;3.70;;;;;;;24.20;100.00;100432.53;5002319;28;20116;-76
2023/07/05 05:25:24;;;;;;;5.43;3.78;;;;;;;24.08;100.00;100360.84;4997528;28;20093;-76
2023/07/05 05:27:49;;;;;;;6.72;3.47;;;;;;;24.25;100.00;100416.19;5002057;28;20153;-78
2023/07/05 05:30:15;;;;;;;5.00;2.40;;;;;;;24.71;100.00;100436.88;5003186;28;20447;-74
2023/07/05 05:32:40;;;;;;;7.72;4.70;;;;;;;24.15;100.00;100358.69;5000346;28;20069;-78
2023/07/05 05:35:06;;;;;;;7.18;4.40;;;;;;;24.59;100.00;100379.41;4996893;28;20030;-75
2023/07/05 05:37:32;;;;;;;5.63;3.67;;;;;;;24.88;100.00;100428.66;4998657;28;20029;-77
2023/07/05 05:39:57;;;;;;;7.13;3.85;;;;;;;24.16;100.00;100279.97;4995371;28;20616;-75
2023/07/05 05:42:22;;;;;;;5.50;3.90;;;;;;;24.34;100.00;100348.63;4993626;28;20058;-75
2023/07/05 05:44:48;;;;;;;8.73;3.70;;;;;;;24.62;100.00;100331.78;4999516;28;20966;-75
2023/07/05 05:47:13;;;;;;;4.22;3.17;;;;;;;24.69;100.00;100348.38;5001002;28;20048;-75
2023/07/05 05:49:39;;;;;;;9.52;5.85;;;;;;;24.85;100.00;100375.19;4986374;28;20026;-73
2023/07/05 05:52:04;;;;;;;6.57;3.33;;;;;;;25.56;100.00;100429.97;5000105;28;20045;-77
2023/07/05 05:54:30;;;;;;;5.88;3.40;;;;;;;24.55;100.00;100368.00;4999681;28;20136;-77
2023/07/05 05:56:55;;;;;;;4.05;2.58;;;;;;;24.67;100.00;100363.72;5004622;28;20065;-75
2023/07/05 05:59:21;;;;;;;8.57;5.10;;;;;;;25.32;100.00;100445.78;5004026;28;20417;-76
2023/07/05 06:01:46;;;;;;;8.65;3.58;;;;;;;25.45;100.00;100449.44;5006559;28;20692;-76
2023/07/05 06:04:12;;;;;;;3.60;2.58;;;;;;;25.40;100.00;100427.38;5005470;28;20042;-78
2023/07/05 06:06:37;;;;;;;6.18;4.07;;;;;;;25.37;100.00;100465.19;5002089;28;20057;-77
2023/07/05 06:09:03;;;;;;;5.25;3.30;;;;;;;25.18;100.00;100407.19;5003440;28;20405;-75
2023/07/05 06:11:28;;;;;;;6.88;4.47;;;;;;;25.58;100.00;100463.84;5002096;28;20120;-75
2023/07/05 06:13:54;;;;;;;7.47;5.18;;;;;;;24.95;100.00;100388.91;4999845;28;20056;-75
2023/07/05 06:16:19;;;;;;;9.80;4.72;;;;;;;25.42;100.00;100444.25;5004113;28;20050;-76
2023/07/05 06:18:45;;;;;;;5.43;4.03;;;;;;;25.13;100.00;100395.84;4999649;28;20046;-75
2023/07/05 06:21:11;;;;;;;5.32;4.78;;;;;;;25.52;100.00;100472.31;5003071;28;20046;-76
2023/07/05 06:23:37;;;;;;;5.45;3.70;;;;;;;25.48;100.00;100451.97;4996953;28;20324;-74
2023/07/05 06:26:03;;;;;;;10.82;3.97;;;;;;;25.44;100.00;100410.97;5001841;28;20057;-75
2023/07/05 06:28:29;;;;;;;9.18;3.10;;;;;;;25.41;100.00;100459.53;4994708;28;20512;-75
2023/07/05 06:30:54;;;;;;;5.05;3.42;;;;;;;25.23;100.00;100399.72;4984039;28;20114;-77
2023/07/05 06:33:20;;;;;;;6.43;3.85;;;;;;;25.28;100.00;100458.53;5003292;28;20089;-76
2023/07/05 06:35:49;;;;;;;10.63;4.45;;;;;;;24.89;100.00;100379.41;4998725;28;20099;-77
2023/07/05 06:38:16;;;;;;;6.63;3.97;;;;;;;25.32;100.00;100472.66;5003024;28;20890;-77
2023/07/05 06:40:41;;;;;;;6.65;4.05;;;;;;;24.67;100.00;100424.56;5000932;28;20573;-76
2023/07/05 06:43:07;;;;;;;5.07;3.17;;;;;;;25.46;100.00;100454.72;5002189;28;20177;-76
2023/07/05 06:45:34;;;;;;;5.30;3.10;;;;;;;25.64;100.00;100425.84;5004112;28;20073;-76
2023/07/05 06:47:59;;;;;;;6.50;3.78;;;;;;;25.17;100.00;100341.00;5008744;28;20042;-76
2023/07/05 06:50:24;;;;;;;13.18;3.78;;;;;;;25.45;100.00;100417.19;5009596;28;20901;-75
2023/07/05 06:52:50;;;;;;;6.90;3.35;;;;;;;25.43;100.00;100454.94;5009074;28;20386;-76
2023/07/05 06:55:16;;;;;;;4.72;2.63;;;;;;;25.56;100.00;100377.09;5004024;28;20058;-76
2023/07/05 06:57:41;;;;;;;5.75;3.33;;;;;;;25.72;100.00;100456.75;5003633;28;20088;-76
2023/07/05 07:00:09;;;;;;;7.32;4.43;;;;;;;25.96;100.00;100441.78;5009008;28;20100;-76
2023/07/05 07:02:34;;;;;;;5.07;3.75;;;;;;;25.91;100.00;100438.53;4991486;28;20114;-75
2023/07/05 07:05:00;;;;;;;7.80;4.30;;;;;;;26.25;100.00;100456.06;4995707;28;20072;-78
2023/07/05 07:07:26;;;;;;;12.48;4.88;;;;;;;26.01;100.00;100401.16;5003581;28;20065;-76
2023/07/05 07:09:51;;;;;;;4.93;3.25;;;;;;;26.07;100.00;100446.50;5007233;28;20085;-76
2023/07/05 07:12:17;;;;;;;7.50;4.47;;;;;;;25.91;100.00;100425.09;5007996;28;20125;-74
2023/07/05 07:14:43;;;;;;;4.68;3.42;;;;;;;25.65;100.00;100360.38;5005608;28;20484;-74
2023/07/05 07:17:08;;;;;;;5.97;3.97;;;;;;;26.16;100.00;100445.06;5001262;28;20034;-76
2023/07/05 07:19:34;;;;;;;7.93;3.10;;;;;;;25.73;100.00;100386.78;5000629;28;20026;-70
2023/07/05 07:21:59;;;;;;;4.95;3.55;;;;;;;25.53;100.00;100408.69;5004719;28;20042;-72
2023/07/05 07:24:25;;;;;;;10.30;4.22;;;;;;;25.79;100.00;100391.75;5000159;28;20084;-73
2023/07/05 07:26:51;;;;;;;5.05;3.58;;;;;;;26.29;100.00;100454.03;5006505;28;20038;-73
2023/07/05 07:29:16;;;;;;;5.70;4.30;;;;;;;26.30;100.00;100445.00;4988434;28;20149;-73
2023/07/05 07:31:42;;;;;;;5.53;3.58;;;;;;;26.26;100.00;100373.53;5008848;28;20473;-74
2023/07/05 07:34:08;;;;;;;6.80;3.88;;;;;;;26.66;100.00;100441.72;5008293;28;20049;-73
2023/07/05 07:36:35;;;;;;;6.80;3.80;;;;;;;25.99;100.00;100384.25;5004788;28;20058;-73
2023/07/05 07:39:00;;;;;;;5.57;3.22;;;;;;;26.64;100.00;100472.41;4999058;28;20049;-73
2023/07/05 07:41:36;;;;;;;4.45;3.17;;;;;;;26.49;100.00;100485.03;5006018;28;20680;-74
2023/07/05 07:44:08;;;;;;;6.85;4.95;;;;;;;26.00;100.00;100388.69;5008029;28;20045;-74
2023/07/05 07:46:35;;;;;;;4.97;3.60;;;;;;;26.30;100.00;100385.81;5006976;28;20519;-73
2023/07/05 07:49:02;;;;;;;4.03;2.35;;;;;;;26.74;100.00;100460.94;5008458;28;20835;-73
2023/07/05 07:51:33;;;;;;;6.13;3.22;;;;;;;25.95;100.00;100377.38;5006421;28;20046;-73
2023/07/05 07:53:59;;;;;;;5.85;2.63;;;;;;;26.65;100.00;100450.78;5007143;28;20421;-73
2023/07/05 07:56:26;;;;;;;18.83;3.17;;;;;;;26.51;100.00;100450.81;4986426;28;20053;-73
2023/07/05 07:58:54;;;;;;;5.80;2.80;;;;;;;26.60;100.00;100460.13;5000458;28;20026;-73
2023/07/05 08:01:25;;;;;;;5.40;4.13;;;;;;;26.57;100.00;100447.72;5005820;28;20050;-73
2023/07/05 08:03:51;;;;;;;4.85;3.50;;;;;;;26.28;100.00;100380.53;4989740;28;20576;-73
2023/07/05 08:06:17;;;;;;;5.72;3.53;;;;;;;26.57;100.00;100384.97;5002042;28;20065;-73
2023/07/05 08:08:43;;;;;;;4.55;3.63;;;;;;;27.23;100.00;100415.50;5005942;28;20042;-73
2023/07/05 08:11:09;;;;;;;5.13;3.75;;;;;;;27.05;100.00;100466.97;5005069;28;20512;-73
2023/07/05 08:13:36;;;;;;;4.55;2.83;;;;;;;26.62;100.00;100386.41;4984611;28;20035;-73
2023/07/05 08:16:03;;;;;;;5.43;3.80;;;;;;;27.31;100.00;100459.81;5005418;28;20042;-73
2023/07/05 08:18:28;;;;;;;7.25;5.22;;;;;;;27.14;100.00;100403.50;5000764;28;20054;-72
2023/07/05 08:20:54;;;;;;;5.63;4.63;;;;;;;27.62;100.00;100459.50;5004599;28;20104;-73
2023/07/05 08:23:20;;;;;;;6.10;4.70;;;;;;;27.45;100.00;100477.72;5007668;28;20060;-73
2023/07/05 08:25:55;;;;;;;12.23;4.15;;;;;;;27.04;100.00;100397.00;5004923;28;20052;-73
2023/07/05 08:28:25;;;;;;;6.75;4.10;;;;;;;27.36;100.00;100471.13;5000969;28;20064;-73
2023/07/05 08:30:55;;;;;;;8.88;5.65;;;;;;;27.26;100.00;100401.81;5007317;28;20107;-73
2023/07/05 08:33:26;;;;;;;6.00;5.25;;;;;;;27.78;100.00;100439.41;5005569;28;20045;-73
2023/07/05 08:36:14;;;;;;;5.50;3.58;;;;;;;28.12;100.00;100444.22;4997162;28;20052;-73
2023/07/05 08:38:43;;;;;;;5.10;3.65;;;;;;;27.70;100.00;100451.75;4999613;28;20070;-73
2023/07/05 08:41:19;;;;;;;6.70;3.50;;;;;;;27.38;100.00;100338.97;5005169;28;20132;-72
2023/07/05 08:43:56;;;;;;;9.10;4.28;;;;;;;27.84;100.00;100386.03;5007181;28;20843;-72
2023/07/05 08:46:23;;;;;;;5.03;2.72;;;;;;;28.14;100.00;100394.59;5005418;28;20050;-74
2023/07/05 08:48:51;;;;;;;4.00;2.70;;;;;;;27.84;100.00;100380.63;5002610;28;20625;-75
2023/07/05 08:51:17;;;;;;;3.35;2.80;;;;;;;27.98;100.00;100383.22;5006388;28;20133;-75
2023/07/05 08:53:51;;;;;;;5.95;3.35;;;;;;;28.90;100.00;100370.91;5003302;28;20058;-75
2023/07/05 08:56:41;;;;;;;14.95;4.00;;;;;;;28.12;100.00;100376.78;5000365;28;20038;-75
2023/07/05 08:59:23;;;;;;;5.35;3.50;;;;;;;28.42;100.00;100458.19;5005217;28;20072;-75
2023/07/05 09:01:54;;;;;;;4.35;3.03;;;;;;;29.12;100.00;100399.81;4982403;28;20456;-77
2023/07/05 09:04:26;;;;;;;10.05;3.50;;;;;;;28.66;100.00;100392.56;5005119;28;20531;-76
2023/07/05 09:07:24;;;;;;;5.35;2.75;;;;;;;29.69;100.00;100456.72;5002340;28;20056;-76
2023/07/05 09:10:13;;;;;;;3.85;2.33;;;;;;;29.48;100.00;100449.31;5001979;28;20113;-76
2023/07/05 09:12:58;;;;;;;3.95;2.83;;;;;;;30.62;100.00;100422.00;5000521;28;20092;-75
2023/07/05 09:15:29;;;;;;;7.65;3.05;;;;;;;29.99;100.00;100429.91;5004987;28;20053;-76
2023/07/05 09:18:11;;;;;;;4.15;2.03;;;;;;;29.49;100.00;100369.03;5003626;28;20053;-75
2023/07/05 09:21:17;;;;;;;6.37;3.17;;;;;;;30.23;100.00;100437.88;5006129;28;20042;-76
2023/07/05 09:23:53;;;;;;;5.90;2.70;;;;;;;30.82;100.00;100441.16;4979780;28;20050;-76
2023/07/05 09:26:32;;;;;;;3.13;2.25;;;;;;;28.96;100.00;100373.13;5006339;28;20029;-76
2023/07/05 09:29:22;;;;;;;4.88;2.80;;;;;;;29.39;100.00;100401.34;5000182;28;20534;-76
2023/07/05 09:31:50;;;;;;;3.28;2.50;;;;;;;30.00;100.00;100382.06;4997751;28;20061;-77
2023/07/05 09:34:40;;;;;;;3.83;2.05;;;;;;;30.98;100.00;100419.94;5005717;28;20058;-75
2023/07/05 09:37:20;;;;;;;3.50;2.47;;;;;;;30.55;100.00;100391.00;5000174;28;20056;-75
2023/07/05 09:39:51;;;;;;;4.30;2.17;;;;;;;31.17;100.00;100410.22;5000276;28;20588;-75
2023/07/05 09:42:48;;;;;;;3.30;2.35;;;;;;;31.93;100.00;100408.00;5002497;28;20077;-74
2023/07/05 09:45:16;;;;;;;4.15;2.55;;;;;;;31.76;89.88;100394.09;4985349;28;20058;-77
2023/07/05 09:47:43;;;;;;;3.42;1.95;;;;;;;29.93;96.11;100388.97;5005016;28;20100;-76
2023/07/05 09:50:18;;;;;;;5.03;2.67;;;;;;;30.67;92.00;100387.28;5005174;28;20149;-76
2023/07/05 09:52:52;;;;;;;4.07;2.25;;;;;;;31.41;92.44;100326.72;4997122;28;20034;-76
2023/07/05 09:55:19;;;;;;;4.93;2.67;;;;;;;30.34;88.62;100347.66;5002973;28;20505;-77
2023/07/05 09:57:47;;;;;;;4.40;1.92;;;;;;;31.71;76.06;100390.09;4997201;28;20046;-76
2023/07/05 10:00:24;;;;;;;3.15;2.05;;;;;;;30.70;71.97;100397.00;4991718;28;20050;-76
2023/07/05 10:02:52;;;;;;;4.97;3.08;;;;;;;31.85;69.71;100387.00;4994975;28;20042;-75
2023/07/05 10:05:27;;;;;;;5.18;3.53;;;;;;;31.24;70.71;100311.94;4999462;28;20116;-74
2023/07/05 10:07:59;;;;;;;5.75;2.28;;;;;;;31.39;76.12;100361.22;5002389;28;20056;-74
2023/07/05 10:10:36;;;;;;;6.78;2.13;;;;;;;31.22;67.42;100313.06;4995571;28;20050;-74
2023/07/05 10:13:15;;;;;;;4.05;2.63;;;;;;;32.91;68.90;100335.66;4995253;28;20882;-74
2023/07/05 10:15:49;;;;;;;4.32;2.20;;;;;;;33.51;57.44;100378.88;5003733;28;20181;-74
2023/07/05 10:18:33;;;;;;;9.60;3.13;;;;;;;32.48;59.87;100317.94;4998023;28;20525;-76
2023/07/05 10:21:20;;;;;;;2.75;1.92;;;;;;;33.32;56.19;100318.09;4981732;28;20398;-75
2023/07/05 10:23:47;;;;;;;3.70;1.35;;;;;;;32.94;54.00;100234.75;4990689;28;20566;-74
2023/07/05 10:26:13;;;;;;;2.47;1.85;;;;;;;33.32;51.94;100348.03;5001333;28;20037;-75
2023/07/05 10:28:42;;;;;;;3.58;1.88;;;;;;;31.83;53.14;100337.44;5004091;28;20037;-76
2023/07/05 10:31:26;;;;;;;2.13;1.42;;;;;;;33.08;50.00;100367.53;5003076;28;20054;-75
2023/07/05 10:34:15;;;;;;;4.18;1.85;;;;;;;32.99;49.42;100294.97;5007497;28;20049;-76
2023/07/05 10:36:44;;;;;;;2.25;1.73;;;;;;;31.73;50.55;100276.84;5003468;28;20037;-75
2023/07/05 10:39:10;;;;;;;3.13;1.83;;;;;;;33.13;46.82;100346.22;5007744;28;20108;-75
2023/07/05 10:41:37;;;;;;;3.10;1.42;;;;;;;32.94;48.31;100352.53;5008011;28;20050;-76
2023/07/05 10:44:10;;;;;;;3.53;2.45;;;;;;;31.54;50.92;100327.34;5005918;28;20068;-76
2023/07/05 10:46:38;;;;;;;2.15;1.45;;;;;;;32.29;50.33;100319.66;5009635;28;20105;-75
2023/07/05 10:49:12;;;;;;;2.67;1.55;;;;;;;31.66;50.46;100264.84;4995959;28;20041;-76
2023/07/05 10:51:42;;;;;;;3.22;2.13;;;;;;;31.99;49.70;100330.66;5009609;28;20057;-75
2023/07/05 10:54:27;;;;;;;2.75;1.45;;;;;;;32.50;48.26;100344.00;5006165;28;20114;-77
2023/07/05 10:56:53;;;;;;;2.50;1.35;;;;;;;32.32;48.16;100326.66;4988298;28;20046;-76
2023/07/05 10:59:25;;;;;;;3.38;1.75;;;;;;;32.47;47.82;100343.38;5001904;28;20042;-76
2023/07/05 11:01:58;;;;;;;5.40;1.93;;;;;;;32.99;48.31;100294.97;5007829;28;20054;-76
2023/07/05 11:04:29;;;;;;;3.35;1.60;;;;;;;33.51;48.51;100279.06;5008991;28;20545;-76
2023/07/05 11:07:02;;;;;;;3.33;2.20;;;;;;;32.95;46.24;100191.13;5005151;28;20061;-76
2023/07/05 11:09:35;;;;;;;2.00;1.33;;;;;;;34.49;45.57;100314.66;4999766;28;20401;-76
2023/07/05 11:12:03;;;;;;;3.33;2.03;;;;;;;34.26;45.99;100325.19;5003891;28;20061;-76
2023/07/05 11:14:29;;;;;;;3.13;1.85;;;;;;;32.99;45.84;100246.91;4996934;28;20050;-76
2023/07/05 11:16:57;;;;;;;5.32;2.72;;;;;;;34.63;46.69;100316.84;5004322;28;20030;-75
2023/07/05 11:19:26;;;;;;;2.90;1.85;;;;;;;34.78;43.27;100297.19;5014897;28;20061;-75
2023/07/05 11:21:53;;;;;;;6.05;2.28;;;;;;;34.55;47.88;100237.69;4999470;28;20049;-76
2023/07/05 11:24:30;;;;;;;3.17;2.10;;;;;;;34.14;42.95;100301.88;5004954;28;20058;-75
2023/07/05 11:26:56;;;;;;;3.50;1.65;;;;;;;32.91;45.45;100218.75;5001861;28;20085;-75
2023/07/05 11:29:25;;;;;;;2.35;1.35;;;;;;;32.59;46.27;100239.00;4993685;28;20042;-75